sensor_id;sensor_type;location;lat;lon;timestamp;temperature;humidity
13992;DHT22;7070;53.586;9.692;2023-04-29T00:00:45;9.80;84.80
13992;DHT22;7070;53.586;9.692;2023-04-29T00:03:12;9.80;84.80
13992;DHT22;7070;53.586;9.692;2023-04-29T00:05:39;9.80;84.80
13992;DHT22;7070;53.586;9.692;2023-04-29T00:08:06;9.70;84.80
13992;DHT22;7070;53.586;9.692;2023-04-29T00:10:32;9.80;84.70
13992;DHT22;7070;53.586;9.692;2023-04-29T00:12:59;9.80;84.70
13992;DHT22;7070;53.586;9.692;2023-04-29T00:15:26;9.80;84.80
13992;DHT22;7070;53.586;9.692;2023-04-29T00:17:54;9.80;84.60
13992;DHT22;7070;53.586;9.692;2023-04-29T00:20:21;9.80;84.70
13992;DHT22;7070;53.586;9.692;2023-04-29T00:22:48;9.80;84.70
13992;DHT22;7070;53.586;9.692;2023-04-29T00:25:15;9.70;84.60
13992;DHT22;7070;53.586;9.692;2023-04-29T00:27:42;9.80;84.60
13992;DHT22;7070;53.586;9.692;2023-04-29T00:30:09;9.70;84.50
13992;DHT22;7070;53.586;9.692;2023-04-29T00:32:36;9.80;84.60
13992;DHT22;7070;53.586;9.692;2023-04-29T00:35:05;9.80;84.50
13992;DHT22;7070;53.586;9.692;2023-04-29T00:37:32;9.70;84.40
13992;DHT22;7070;53.586;9.692;2023-04-29T00:39:59;9.70;84.40
13992;DHT22;7070;53.586;9.692;2023-04-29T00:42:27;9.70;84.40
13992;DHT22;7070;53.586;9.692;2023-04-29T00:44:54;9.70;84.40
13992;DHT22;7070;53.586;9.692;2023-04-29T00:47:21;9.70;84.30
13992;DHT22;7070;53.586;9.692;2023-04-29T00:49:48;9.70;84.30
13992;DHT22;7070;53.586;9.692;2023-04-29T00:52:17;9.70;84.30
13992;DHT22;7070;53.586;9.692;2023-04-29T00:54:44;9.70;84.90
13992;DHT22;7070;53.586;9.692;2023-04-29T00:57:11;9.60;84.00
13992;DHT22;7070;53.586;9.692;2023-04-29T00:59:38;9.70;84.10
13992;DHT22;7070;53.586;9.692;2023-04-29T01:02:05;9.60;84.00
13992;DHT22;7070;53.586;9.692;2023-04-29T01:04:32;9.70;84.10
13992;DHT22;7070;53.586;9.692;2023-04-29T01:07:03;9.60;83.90
13992;DHT22;7070;53.586;9.692;2023-04-29T01:09:54;9.60;83.80
13992;DHT22;7070;53.586;9.692;2023-04-29T01:12:31;9.60;83.80
13992;DHT22;7070;53.586;9.692;2023-04-29T01:15:03;9.60;83.80
13992;DHT22;7070;53.586;9.692;2023-04-29T01:17:36;9.60;83.80
13992;DHT22;7070;53.586;9.692;2023-04-29T01:20:07;9.60;83.80
13992;DHT22;7070;53.586;9.692;2023-04-29T01:22:35;9.60;83.90
13992;DHT22;7070;53.586;9.692;2023-04-29T01:25:04;9.50;83.80
13992;DHT22;7070;53.586;9.692;2023-04-29T01:27:33;9.50;83.70
13992;DHT22;7070;53.586;9.692;2023-04-29T01:30:09;9.60;83.70
13992;DHT22;7070;53.586;9.692;2023-04-29T01:32:45;9.50;83.60
13992;DHT22;7070;53.586;9.692;2023-04-29T01:35:27;9.50;84.40
13992;DHT22;7070;53.586;9.692;2023-04-29T01:38:00;9.50;83.60
13992;DHT22;7070;53.586;9.692;2023-04-29T01:40:39;9.50;83.70
13992;DHT22;7070;53.586;9.692;2023-04-29T01:43:10;9.50;83.60
13992;DHT22;7070;53.586;9.692;2023-04-29T01:45:38;9.40;83.50
13992;DHT22;7070;53.586;9.692;2023-04-29T01:48:07;9.50;83.60
13992;DHT22;7070;53.586;9.692;2023-04-29T01:50:34;9.50;83.70
13992;DHT22;7070;53.586;9.692;2023-04-29T01:53:01;9.40;83.50
13992;DHT22;7070;53.586;9.692;2023-04-29T01:55:28;9.40;83.60
13992;DHT22;7070;53.586;9.692;2023-04-29T01:57:56;9.40;83.50
13992;DHT22;7070;53.586;9.692;2023-04-29T02:00:23;9.40;83.50
13992;DHT22;7070;53.586;9.692;2023-04-29T02:02:50;9.40;84.30
13992;DHT22;7070;53.586;9.692;2023-04-29T02:05:17;9.40;83.50
13992;DHT22;7070;53.586;9.692;2023-04-29T02:07:43;9.40;83.50
13992;DHT22;7070;53.586;9.692;2023-04-29T02:10:10;9.40;83.50
13992;DHT22;7070;53.586;9.692;2023-04-29T02:12:37;9.40;83.50
13992;DHT22;7070;53.586;9.692;2023-04-29T02:15:07;9.40;83.50
13992;DHT22;7070;53.586;9.692;2023-04-29T02:17:34;9.40;83.40
13992;DHT22;7070;53.586;9.692;2023-04-29T02:20:01;9.40;83.50
13992;DHT22;7070;53.586;9.692;2023-04-29T02:22:28;9.40;83.50
13992;DHT22;7070;53.586;9.692;2023-04-29T02:24:55;9.30;83.40
13992;DHT22;7070;53.586;9.692;2023-04-29T02:27:22;9.30;83.40
13992;DHT22;7070;53.586;9.692;2023-04-29T02:29:50;9.30;83.40
13992;DHT22;7070;53.586;9.692;2023-04-29T02:32:19;9.30;83.40
13992;DHT22;7070;53.586;9.692;2023-04-29T02:34:46;9.30;83.40
13992;DHT22;7070;53.586;9.692;2023-04-29T02:37:13;9.30;83.40
13992;DHT22;7070;53.586;9.692;2023-04-29T02:39:40;9.20;83.30
13992;DHT22;7070;53.586;9.692;2023-04-29T02:42:07;9.20;83.40
13992;DHT22;7070;53.586;9.692;2023-04-29T02:44:34;9.20;83.40
13992;DHT22;7070;53.586;9.692;2023-04-29T02:47:01;9.20;83.40
13992;DHT22;7070;53.586;9.692;2023-04-29T02:49:29;9.20;83.40
13992;DHT22;7070;53.586;9.692;2023-04-29T02:51:56;9.20;83.40
13992;DHT22;7070;53.586;9.692;2023-04-29T02:54:23;9.20;83.40
13992;DHT22;7070;53.586;9.692;2023-04-29T02:56:50;9.20;83.50
13992;DHT22;7070;53.586;9.692;2023-04-29T02:59:17;9.10;83.30
13992;DHT22;7070;53.586;9.692;2023-04-29T03:01:44;9.10;83.40
13992;DHT22;7070;53.586;9.692;2023-04-29T03:04:12;9.10;83.40
13992;DHT22;7070;53.586;9.692;2023-04-29T03:06:40;9.20;83.60
13992;DHT22;7070;53.586;9.692;2023-04-29T03:09:08;9.10;83.30
13992;DHT22;7070;53.586;9.692;2023-04-29T03:11:35;9.10;83.40
13992;DHT22;7070;53.586;9.692;2023-04-29T03:14:01;9.10;83.50
13992;DHT22;7070;53.586;9.692;2023-04-29T03:16:29;9.10;83.40
13992;DHT22;7070;53.586;9.692;2023-04-29T03:18:56;9.00;84.00
13992;DHT22;7070;53.586;9.692;2023-04-29T03:21:22;9.00;83.20
13992;DHT22;7070;53.586;9.692;2023-04-29T03:23:52;9.10;83.30
13992;DHT22;7070;53.586;9.692;2023-04-29T03:26:19;9.00;83.20
13992;DHT22;7070;53.586;9.692;2023-04-29T03:28:47;9.00;83.20
13992;DHT22;7070;53.586;9.692;2023-04-29T03:31:13;9.00;83.20
13992;DHT22;7070;53.586;9.692;2023-04-29T03:33:41;8.90;83.20
13992;DHT22;7070;53.586;9.692;2023-04-29T03:36:08;8.90;83.30
13992;DHT22;7070;53.586;9.692;2023-04-29T03:38:35;9.10;83.50
13992;DHT22;7070;53.586;9.692;2023-04-29T03:41:03;9.00;83.50
13992;DHT22;7070;53.586;9.692;2023-04-29T03:43:30;8.90;83.40
13992;DHT22;7070;53.586;9.692;2023-04-29T03:45:57;8.90;83.40
13992;DHT22;7070;53.586;9.692;2023-04-29T03:48:24;8.90;83.40
13992;DHT22;7070;53.586;9.692;2023-04-29T03:50:51;9.00;83.60
13992;DHT22;7070;53.586;9.692;2023-04-29T03:53:18;9.00;84.30
13992;DHT22;7070;53.586;9.692;2023-04-29T03:55:46;8.90;83.60
13992;DHT22;7070;53.586;9.692;2023-04-29T03:58:14;9.00;83.70
13992;DHT22;7070;53.586;9.692;2023-04-29T04:00:41;9.00;83.70
13992;DHT22;7070;53.586;9.692;2023-04-29T04:03:08;9.00;83.70
13992;DHT22;7070;53.586;9.692;2023-04-29T04:05:35;9.00;83.60
13992;DHT22;7070;53.586;9.692;2023-04-29T04:08:02;9.00;83.70
13992;DHT22;7070;53.586;9.692;2023-04-29T04:10:29;9.10;83.70
13992;DHT22;7070;53.586;9.692;2023-04-29T04:12:55;9.10;83.70
13992;DHT22;7070;53.586;9.692;2023-04-29T04:15:24;9.10;83.70
13992;DHT22;7070;53.586;9.692;2023-04-29T04:17:50;9.10;83.60
13992;DHT22;7070;53.586;9.692;2023-04-29T04:20:17;9.10;83.60
13992;DHT22;7070;53.586;9.692;2023-04-29T04:22:44;9.00;83.40
13992;DHT22;7070;53.586;9.692;2023-04-29T04:25:11;9.10;83.40
13992;DHT22;7070;53.586;9.692;2023-04-29T04:27:38;9.00;83.20
13992;DHT22;7070;53.586;9.692;2023-04-29T04:30:06;9.00;83.20
13992;DHT22;7070;53.586;9.692;2023-04-29T04:32:35;8.90;82.90
13992;DHT22;7070;53.586;9.692;2023-04-29T04:35:02;8.90;82.90
13992;DHT22;7070;53.586;9.692;2023-04-29T04:37:29;8.90;82.80
13992;DHT22;7070;53.586;9.692;2023-04-29T04:39:56;8.80;82.60
13992;DHT22;7070;53.586;9.692;2023-04-29T04:42:22;8.70;82.50
13992;DHT22;7070;53.586;9.692;2023-04-29T04:44:51;8.60;82.30
13992;DHT22;7070;53.586;9.692;2023-04-29T04:47:18;8.50;82.30
13992;DHT22;7070;53.586;9.692;2023-04-29T04:49:46;8.50;82.40
13992;DHT22;7070;53.586;9.692;2023-04-29T04:52:14;8.40;82.50
13992;DHT22;7070;53.586;9.692;2023-04-29T04:54:44;8.40;82.50
13992;DHT22;7070;53.586;9.692;2023-04-29T04:57:11;8.30;82.60
13992;DHT22;7070;53.586;9.692;2023-04-29T04:59:38;8.30;82.70
13992;DHT22;7070;53.586;9.692;2023-04-29T05:02:05;8.20;82.80
13992;DHT22;7070;53.586;9.692;2023-04-29T05:04:33;8.30;83.00
13992;DHT22;7070;53.586;9.692;2023-04-29T05:07:01;8.30;83.10
13992;DHT22;7070;53.586;9.692;2023-04-29T05:09:28;8.30;83.20
13992;DHT22;7070;53.586;9.692;2023-04-29T05:11:55;8.30;83.40
13992;DHT22;7070;53.586;9.692;2023-04-29T05:14:24;8.40;83.60
13992;DHT22;7070;53.586;9.692;2023-04-29T05:16:50;8.40;83.80
13992;DHT22;7070;53.586;9.692;2023-04-29T05:19:17;8.50;84.00
13992;DHT22;7070;53.586;9.692;2023-04-29T05:21:44;8.60;84.10
13992;DHT22;7070;53.586;9.692;2023-04-29T05:24:12;8.60;84.00
13992;DHT22;7070;53.586;9.692;2023-04-29T05:26:39;8.80;84.30
13992;DHT22;7070;53.586;9.692;2023-04-29T05:29:08;8.80;84.30
13992;DHT22;7070;53.586;9.692;2023-04-29T05:31:35;8.90;84.30
13992;DHT22;7070;53.586;9.692;2023-04-29T05:34:03;9.00;84.40
13992;DHT22;7070;53.586;9.692;2023-04-29T05:36:30;9.10;84.40
13992;DHT22;7070;53.586;9.692;2023-04-29T05:38:57;9.20;84.50
13992;DHT22;7070;53.586;9.692;2023-04-29T05:41:25;9.20;84.40
13992;DHT22;7070;53.586;9.692;2023-04-29T05:43:52;9.30;84.20
13992;DHT22;7070;53.586;9.692;2023-04-29T05:46:19;9.40;84.30
13992;DHT22;7070;53.586;9.692;2023-04-29T05:48:47;9.50;84.30
13992;DHT22;7070;53.586;9.692;2023-04-29T05:51:14;9.50;84.10
13992;DHT22;7070;53.586;9.692;2023-04-29T05:53:41;9.60;84.10
13992;DHT22;7070;53.586;9.692;2023-04-29T05:56:08;9.70;84.10
13992;DHT22;7070;53.586;9.692;2023-04-29T05:58:36;9.80;84.10
13992;DHT22;7070;53.586;9.692;2023-04-29T06:01:03;10.00;83.90
13992;DHT22;7070;53.586;9.692;2023-04-29T06:03:30;10.00;83.00
13992;DHT22;7070;53.586;9.692;2023-04-29T06:05:57;10.10;82.80
13992;DHT22;7070;53.586;9.692;2023-04-29T06:08:24;10.20;82.40
13992;DHT22;7070;53.586;9.692;2023-04-29T06:10:51;10.20;82.00
13992;DHT22;7070;53.586;9.692;2023-04-29T06:13:18;10.30;81.80
13992;DHT22;7070;53.586;9.692;2023-04-29T06:15:46;10.30;81.50
13992;DHT22;7070;53.586;9.692;2023-04-29T06:18:13;10.30;81.00
13992;DHT22;7070;53.586;9.692;2023-04-29T06:20:40;10.30;80.80
13992;DHT22;7070;53.586;9.692;2023-04-29T06:23:07;10.40;80.80
13992;DHT22;7070;53.586;9.692;2023-04-29T06:25:34;10.30;80.70
13992;DHT22;7070;53.586;9.692;2023-04-29T06:28:01;10.40;80.80
13992;DHT22;7070;53.586;9.692;2023-04-29T06:30:28;10.40;80.70
13992;DHT22;7070;53.586;9.692;2023-04-29T06:32:57;10.40;80.80
13992;DHT22;7070;53.586;9.692;2023-04-29T06:35:23;10.50;80.80
13992;DHT22;7070;53.586;9.692;2023-04-29T06:37:50;10.50;80.50
13992;DHT22;7070;53.586;9.692;2023-04-29T06:40:17;10.60;80.40
13992;DHT22;7070;53.586;9.692;2023-04-29T06:42:44;10.60;80.30
13992;DHT22;7070;53.586;9.692;2023-04-29T06:45:11;10.60;80.20
13992;DHT22;7070;53.586;9.692;2023-04-29T06:47:38;10.70;80.00
13992;DHT22;7070;53.586;9.692;2023-04-29T06:50:07;10.80;80.10
13992;DHT22;7070;53.586;9.692;2023-04-29T06:52:34;10.80;80.20
13992;DHT22;7070;53.586;9.692;2023-04-29T06:55:01;10.90;80.40
13992;DHT22;7070;53.586;9.692;2023-04-29T06:57:28;11.10;80.20
13992;DHT22;7070;53.586;9.692;2023-04-29T06:59:56;11.20;79.90
13992;DHT22;7070;53.586;9.692;2023-04-29T07:02:23;11.20;79.70
13992;DHT22;7070;53.586;9.692;2023-04-29T07:04:50;11.30;79.30
13992;DHT22;7070;53.586;9.692;2023-04-29T07:07:18;11.40;79.10
13992;DHT22;7070;53.586;9.692;2023-04-29T07:09:45;11.50;78.90
13992;DHT22;7070;53.586;9.692;2023-04-29T07:12:13;11.50;78.70
13992;DHT22;7070;53.586;9.692;2023-04-29T07:14:47;11.60;78.50
13992;DHT22;7070;53.586;9.692;2023-04-29T07:17:14;11.50;78.20
13992;DHT22;7070;53.586;9.692;2023-04-29T07:19:41;11.50;78.10
13992;DHT22;7070;53.586;9.692;2023-04-29T07:22:07;11.60;78.70
13992;DHT22;7070;53.586;9.692;2023-04-29T07:24:36;11.50;77.70
13992;DHT22;7070;53.586;9.692;2023-04-29T07:27:03;11.60;77.60
13992;DHT22;7070;53.586;9.692;2023-04-29T07:29:30;11.60;77.60
13992;DHT22;7070;53.586;9.692;2023-04-29T07:31:57;11.60;77.60
13992;DHT22;7070;53.586;9.692;2023-04-29T07:34:24;11.60;77.40
13992;DHT22;7070;53.586;9.692;2023-04-29T07:36:50;11.60;77.20
13992;DHT22;7070;53.586;9.692;2023-04-29T07:39:17;11.70;77.20
13992;DHT22;7070;53.586;9.692;2023-04-29T07:41:45;11.80;77.20
13992;DHT22;7070;53.586;9.692;2023-04-29T07:44:12;11.90;77.30
13992;DHT22;7070;53.586;9.692;2023-04-29T07:46:39;12.00;77.20
13992;DHT22;7070;53.586;9.692;2023-04-29T07:49:06;12.10;76.90
13992;DHT22;7070;53.586;9.692;2023-04-29T07:51:33;12.30;77.00
13992;DHT22;7070;53.586;9.692;2023-04-29T07:54:00;12.50;76.60
13992;DHT22;7070;53.586;9.692;2023-04-29T07:56:26;12.60;76.20
13992;DHT22;7070;53.586;9.692;2023-04-29T07:58:55;12.80;76.00
13992;DHT22;7070;53.586;9.692;2023-04-29T08:01:21;13.00;76.00
13992;DHT22;7070;53.586;9.692;2023-04-29T08:03:48;13.10;75.70
13992;DHT22;7070;53.586;9.692;2023-04-29T08:06:15;13.30;74.60
13992;DHT22;7070;53.586;9.692;2023-04-29T08:08:42;13.40;74.10
13992;DHT22;7070;53.586;9.692;2023-04-29T08:11:15;13.50;73.50
13992;DHT22;7070;53.586;9.692;2023-04-29T08:13:41;13.50;72.90
13992;DHT22;7070;53.586;9.692;2023-04-29T08:16:10;13.50;72.40
13992;DHT22;7070;53.586;9.692;2023-04-29T08:18:36;13.50;72.40
13992;DHT22;7070;53.586;9.692;2023-04-29T08:21:03;13.60;72.60
13992;DHT22;7070;53.586;9.692;2023-04-29T08:23:30;13.50;72.60
13992;DHT22;7070;53.586;9.692;2023-04-29T08:25:57;13.60;72.60
13992;DHT22;7070;53.586;9.692;2023-04-29T08:28:24;13.60;72.60
13992;DHT22;7070;53.586;9.692;2023-04-29T08:30:52;13.70;72.80
13992;DHT22;7070;53.586;9.692;2023-04-29T08:33:20;13.80;72.80
13992;DHT22;7070;53.586;9.692;2023-04-29T08:35:47;13.90;72.30
13992;DHT22;7070;53.586;9.692;2023-04-29T08:38:14;14.00;72.10
13992;DHT22;7070;53.586;9.692;2023-04-29T08:40:42;14.10;71.80
13992;DHT22;7070;53.586;9.692;2023-04-29T08:43:11;14.20;71.70
13992;DHT22;7070;53.586;9.692;2023-04-29T08:45:39;14.30;71.80
13992;DHT22;7070;53.586;9.692;2023-04-29T08:48:07;14.40;71.60
13992;DHT22;7070;53.586;9.692;2023-04-29T08:50:37;14.50;71.10
13992;DHT22;7070;53.586;9.692;2023-04-29T08:53:04;14.60;70.70
13992;DHT22;7070;53.586;9.692;2023-04-29T08:55:35;14.60;70.20
13992;DHT22;7070;53.586;9.692;2023-04-29T08:58:02;14.70;70.40
13992;DHT22;7070;53.586;9.692;2023-04-29T09:00:31;14.70;70.20
13992;DHT22;7070;53.586;9.692;2023-04-29T09:03:00;14.70;70.30
13992;DHT22;7070;53.586;9.692;2023-04-29T09:05:28;14.80;70.30
13992;DHT22;7070;53.586;9.692;2023-04-29T09:07:57;14.70;69.30
13992;DHT22;7070;53.586;9.692;2023-04-29T09:10:27;14.70;69.00
13992;DHT22;7070;53.586;9.692;2023-04-29T09:12:55;14.60;68.80
13992;DHT22;7070;53.586;9.692;2023-04-29T09:15:23;14.60;68.80
13992;DHT22;7070;53.586;9.692;2023-04-29T09:17:50;14.50;68.80
13992;DHT22;7070;53.586;9.692;2023-04-29T09:20:26;14.30;69.30
13992;DHT22;7070;53.586;9.692;2023-04-29T09:22:54;14.30;69.20
13992;DHT22;7070;53.586;9.692;2023-04-29T09:25:23;14.20;68.90
13992;DHT22;7070;53.586;9.692;2023-04-29T09:27:52;14.10;69.00
13992;DHT22;7070;53.586;9.692;2023-04-29T09:30:19;14.00;68.80
13992;DHT22;7070;53.586;9.692;2023-04-29T09:33:02;13.90;68.60
13992;DHT22;7070;53.586;9.692;2023-04-29T09:35:30;13.90;69.10
13992;DHT22;7070;53.586;9.692;2023-04-29T09:38:08;13.90;68.90
13992;DHT22;7070;53.586;9.692;2023-04-29T09:40:36;13.90;68.90
13992;DHT22;7070;53.586;9.692;2023-04-29T09:43:11;13.90;68.40
13992;DHT22;7070;53.586;9.692;2023-04-29T09:45:40;13.80;68.50
13992;DHT22;7070;53.586;9.692;2023-04-29T09:48:08;13.80;68.40
13992;DHT22;7070;53.586;9.692;2023-04-29T09:50:35;13.80;68.40
13992;DHT22;7070;53.586;9.692;2023-04-29T09:53:03;13.80;68.40
13992;DHT22;7070;53.586;9.692;2023-04-29T09:55:31;13.80;68.50
13992;DHT22;7070;53.586;9.692;2023-04-29T09:57:59;13.80;68.50
13992;DHT22;7070;53.586;9.692;2023-04-29T10:00:28;13.80;68.50
13992;DHT22;7070;53.586;9.692;2023-04-29T10:02:58;13.80;68.50
13992;DHT22;7070;53.586;9.692;2023-04-29T10:05:27;13.90;69.30
13992;DHT22;7070;53.586;9.692;2023-04-29T10:07:55;13.90;68.80
13992;DHT22;7070;53.586;9.692;2023-04-29T10:10:23;13.90;68.20
13992;DHT22;7070;53.586;9.692;2023-04-29T10:12:52;13.90;68.10
13992;DHT22;7070;53.586;9.692;2023-04-29T10:15:25;13.90;68.20
13992;DHT22;7070;53.586;9.692;2023-04-29T10:17:57;13.90;68.40
13992;DHT22;7070;53.586;9.692;2023-04-29T10:20:26;13.90;68.30
13992;DHT22;7070;53.586;9.692;2023-04-29T10:22:54;14.00;68.50
13992;DHT22;7070;53.586;9.692;2023-04-29T10:25:22;14.00;68.70
13992;DHT22;7070;53.586;9.692;2023-04-29T10:27:51;14.10;69.00
13992;DHT22;7070;53.586;9.692;2023-04-29T10:30:19;14.10;69.90
13992;DHT22;7070;53.586;9.692;2023-04-29T10:32:49;14.20;68.90
13992;DHT22;7070;53.586;9.692;2023-04-29T10:35:17;14.20;68.40
13992;DHT22;7070;53.586;9.692;2023-04-29T10:37:46;14.30;68.80
13992;DHT22;7070;53.586;9.692;2023-04-29T10:40:15;14.40;69.10
13992;DHT22;7070;53.586;9.692;2023-04-29T10:42:46;14.50;69.20
13992;DHT22;7070;53.586;9.692;2023-04-29T10:45:17;14.70;69.70
13992;DHT22;7070;53.586;9.692;2023-04-29T10:48:13;14.80;69.90
13992;DHT22;7070;53.586;9.692;2023-04-29T10:51:01;15.00;70.00
13992;DHT22;7070;53.586;9.692;2023-04-29T10:53:29;15.30;70.00
13992;DHT22;7070;53.586;9.692;2023-04-29T10:55:58;15.40;69.40
13992;DHT22;7070;53.586;9.692;2023-04-29T10:58:44;15.50;69.20
13992;DHT22;7070;53.586;9.692;2023-04-29T11:01:13;15.60;69.30
13992;DHT22;7070;53.586;9.692;2023-04-29T11:03:52;15.80;68.60
13992;DHT22;7070;53.586;9.692;2023-04-29T11:06:23;15.90;67.70
13992;DHT22;7070;53.586;9.692;2023-04-29T11:09:01;16.00;67.70
13992;DHT22;7070;53.586;9.692;2023-04-29T11:11:43;16.00;67.50
13992;DHT22;7070;53.586;9.692;2023-04-29T11:14:11;16.00;67.30
13992;DHT22;7070;53.586;9.692;2023-04-29T11:16:46;16.00;65.80
13992;DHT22;7070;53.586;9.692;2023-04-29T11:19:15;16.00;65.80
13992;DHT22;7070;53.586;9.692;2023-04-29T11:21:44;16.00;65.90
13992;DHT22;7070;53.586;9.692;2023-04-29T11:24:11;15.90;65.60
13992;DHT22;7070;53.586;9.692;2023-04-29T11:26:40;15.80;65.70
13992;DHT22;7070;53.586;9.692;2023-04-29T11:29:08;15.70;65.70
13992;DHT22;7070;53.586;9.692;2023-04-29T11:31:36;15.70;66.30
13992;DHT22;7070;53.586;9.692;2023-04-29T11:34:04;15.70;66.40
13992;DHT22;7070;53.586;9.692;2023-04-29T11:36:33;15.70;66.70
13992;DHT22;7070;53.586;9.692;2023-04-29T11:39:02;15.70;67.40
13992;DHT22;7070;53.586;9.692;2023-04-29T11:41:29;15.80;66.30
13992;DHT22;7070;53.586;9.692;2023-04-29T11:43:58;15.80;65.90
13992;DHT22;7070;53.586;9.692;2023-04-29T11:46:25;15.80;65.30
13992;DHT22;7070;53.586;9.692;2023-04-29T11:48:56;15.90;65.60
13992;DHT22;7070;53.586;9.692;2023-04-29T11:51:24;15.90;65.70
13992;DHT22;7070;53.586;9.692;2023-04-29T11:53:54;15.90;65.40
13992;DHT22;7070;53.586;9.692;2023-04-29T11:56:22;15.80;65.30
13992;DHT22;7070;53.586;9.692;2023-04-29T11:58:53;15.90;65.20
13992;DHT22;7070;53.586;9.692;2023-04-29T12:01:21;15.90;65.10
13992;DHT22;7070;53.586;9.692;2023-04-29T12:03:48;15.80;64.50
13992;DHT22;7070;53.586;9.692;2023-04-29T12:06:15;15.70;64.40
13992;DHT22;7070;53.586;9.692;2023-04-29T12:08:42;15.70;64.10
13992;DHT22;7070;53.586;9.692;2023-04-29T12:11:13;15.60;64.00
13992;DHT22;7070;53.586;9.692;2023-04-29T12:13:40;15.50;63.40
13992;DHT22;7070;53.586;9.692;2023-04-29T12:16:10;15.50;63.30
13992;DHT22;7070;53.586;9.692;2023-04-29T12:18:36;15.40;63.20
13992;DHT22;7070;53.586;9.692;2023-04-29T12:21:04;15.40;62.70
13992;DHT22;7070;53.586;9.692;2023-04-29T12:23:31;15.40;63.40
13992;DHT22;7070;53.586;9.692;2023-04-29T12:25:59;15.30;63.90
13992;DHT22;7070;53.586;9.692;2023-04-29T12:28:28;15.40;63.90
13992;DHT22;7070;53.586;9.692;2023-04-29T12:30:57;15.30;63.90
13992;DHT22;7070;53.586;9.692;2023-04-29T12:33:25;15.40;64.20
13992;DHT22;7070;53.586;9.692;2023-04-29T12:35:54;15.40;64.60
13992;DHT22;7070;53.586;9.692;2023-04-29T12:38:22;15.50;64.30
13992;DHT22;7070;53.586;9.692;2023-04-29T12:40:51;15.60;64.20
13992;DHT22;7070;53.586;9.692;2023-04-29T12:43:18;15.60;63.70
13992;DHT22;7070;53.586;9.692;2023-04-29T12:45:46;15.60;64.20
13992;DHT22;7070;53.586;9.692;2023-04-29T12:48:16;15.60;63.60
13992;DHT22;7070;53.586;9.692;2023-04-29T12:50:43;15.50;63.90
13992;DHT22;7070;53.586;9.692;2023-04-29T12:53:14;15.50;63.90
13992;DHT22;7070;53.586;9.692;2023-04-29T12:59:07;15.50;63.70
13992;DHT22;7070;53.586;9.692;2023-04-29T13:01:36;15.50;63.00
13992;DHT22;7070;53.586;9.692;2023-04-29T13:04:03;15.40;62.90
13992;DHT22;7070;53.586;9.692;2023-04-29T13:06:33;15.40;62.70
13992;DHT22;7070;53.586;9.692;2023-04-29T13:09:04;15.30;62.60
13992;DHT22;7070;53.586;9.692;2023-04-29T13:11:31;15.30;62.80
13992;DHT22;7070;53.586;9.692;2023-04-29T13:13:57;15.30;63.10
13992;DHT22;7070;53.586;9.692;2023-04-29T13:16:24;15.30;62.90
13992;DHT22;7070;53.586;9.692;2023-04-29T13:18:53;15.30;62.60
13992;DHT22;7070;53.586;9.692;2023-04-29T13:21:19;15.20;62.10
13992;DHT22;7070;53.586;9.692;2023-04-29T13:23:47;15.20;62.30
13992;DHT22;7070;53.586;9.692;2023-04-29T13:26:14;15.20;61.60
13992;DHT22;7070;53.586;9.692;2023-04-29T13:28:42;15.10;61.40
13992;DHT22;7070;53.586;9.692;2023-04-29T13:31:09;15.10;62.30
13992;DHT22;7070;53.586;9.692;2023-04-29T13:33:36;15.10;62.60
13992;DHT22;7070;53.586;9.692;2023-04-29T13:36:05;15.00;62.80
13992;DHT22;7070;53.586;9.692;2023-04-29T13:38:32;15.00;63.00
13992;DHT22;7070;53.586;9.692;2023-04-29T13:40:59;15.00;62.90
13992;DHT22;7070;53.586;9.692;2023-04-29T13:43:26;15.00;63.20
13992;DHT22;7070;53.586;9.692;2023-04-29T13:45:53;15.00;63.40
13992;DHT22;7070;53.586;9.692;2023-04-29T13:48:20;15.00;62.70
13992;DHT22;7070;53.586;9.692;2023-04-29T13:50:48;15.00;62.30
13992;DHT22;7070;53.586;9.692;2023-04-29T13:53:16;14.90;61.70
13992;DHT22;7070;53.586;9.692;2023-04-29T13:55:43;14.90;62.20
13992;DHT22;7070;53.586;9.692;2023-04-29T13:58:09;14.90;62.00
13992;DHT22;7070;53.586;9.692;2023-04-29T14:00:36;14.90;61.90
13992;DHT22;7070;53.586;9.692;2023-04-29T14:03:03;14.80;61.90
13992;DHT22;7070;53.586;9.692;2023-04-29T14:05:32;14.90;62.20
13992;DHT22;7070;53.586;9.692;2023-04-29T14:07:58;14.80;62.20
13992;DHT22;7070;53.586;9.692;2023-04-29T14:10:27;14.80;62.70
13992;DHT22;7070;53.586;9.692;2023-04-29T14:12:54;14.80;62.80
13992;DHT22;7070;53.586;9.692;2023-04-29T14:15:20;14.80;61.80
13992;DHT22;7070;53.586;9.692;2023-04-29T14:17:47;14.80;62.30
13992;DHT22;7070;53.586;9.692;2023-04-29T14:20:15;14.80;62.30
13992;DHT22;7070;53.586;9.692;2023-04-29T14:22:42;14.80;62.70
13992;DHT22;7070;53.586;9.692;2023-04-29T14:25:09;14.70;63.10
13992;DHT22;7070;53.586;9.692;2023-04-29T14:27:38;14.80;63.50
13992;DHT22;7070;53.586;9.692;2023-04-29T14:30:06;14.70;63.80
13992;DHT22;7070;53.586;9.692;2023-04-29T14:32:33;14.70;64.00
13992;DHT22;7070;53.586;9.692;2023-04-29T14:35:00;14.60;63.80
13992;DHT22;7070;53.586;9.692;2023-04-29T14:37:27;14.60;64.00
13992;DHT22;7070;53.586;9.692;2023-04-29T14:39:54;14.60;64.30
13992;DHT22;7070;53.586;9.692;2023-04-29T14:42:21;14.50;64.30
13992;DHT22;7070;53.586;9.692;2023-04-29T14:44:49;14.60;64.40
13992;DHT22;7070;53.586;9.692;2023-04-29T14:47:16;14.50;64.50
13992;DHT22;7070;53.586;9.692;2023-04-29T14:49:43;14.40;64.70
13992;DHT22;7070;53.586;9.692;2023-04-29T14:52:09;14.40;65.00
13992;DHT22;7070;53.586;9.692;2023-04-29T14:54:36;14.40;65.30
13992;DHT22;7070;53.586;9.692;2023-04-29T14:57:03;14.40;65.30
13992;DHT22;7070;53.586;9.692;2023-04-29T14:59:30;14.40;66.00
13992;DHT22;7070;53.586;9.692;2023-04-29T15:01:59;14.30;65.20
13992;DHT22;7070;53.586;9.692;2023-04-29T15:04:26;14.20;65.40
13992;DHT22;7070;53.586;9.692;2023-04-29T15:06:53;14.10;65.70
13992;DHT22;7070;53.586;9.692;2023-04-29T15:09:20;14.00;66.00
13992;DHT22;7070;53.586;9.692;2023-04-29T15:11:47;14.00;66.50
13992;DHT22;7070;53.586;9.692;2023-04-29T15:14:14;14.10;66.80
13992;DHT22;7070;53.586;9.692;2023-04-29T15:16:41;14.10;66.90
13992;DHT22;7070;53.586;9.692;2023-04-29T15:19:10;14.10;67.00
13992;DHT22;7070;53.586;9.692;2023-04-29T15:21:36;14.10;67.20
13992;DHT22;7070;53.586;9.692;2023-04-29T15:24:03;14.20;67.20
13992;DHT22;7070;53.586;9.692;2023-04-29T15:26:32;14.20;67.20
13992;DHT22;7070;53.586;9.692;2023-04-29T15:28:58;14.20;67.20
13992;DHT22;7070;53.586;9.692;2023-04-29T15:31:25;14.20;67.40
13992;DHT22;7070;53.586;9.692;2023-04-29T15:33:53;14.10;67.60
13992;DHT22;7070;53.586;9.692;2023-04-29T15:36:27;14.10;68.60
13992;DHT22;7070;53.586;9.692;2023-04-29T15:38:54;14.10;68.80
13992;DHT22;7070;53.586;9.692;2023-04-29T15:41:21;14.20;68.20
13992;DHT22;7070;53.586;9.692;2023-04-29T15:43:50;14.20;67.70
13992;DHT22;7070;53.586;9.692;2023-04-29T15:46:17;14.20;67.70
13992;DHT22;7070;53.586;9.692;2023-04-29T15:48:44;14.20;68.50
13992;DHT22;7070;53.586;9.692;2023-04-29T15:51:11;14.20;67.50
13992;DHT22;7070;53.586;9.692;2023-04-29T15:53:41;14.20;67.70
13992;DHT22;7070;53.586;9.692;2023-04-29T15:56:08;14.20;67.80
13992;DHT22;7070;53.586;9.692;2023-04-29T15:58:35;14.30;67.50
13992;DHT22;7070;53.586;9.692;2023-04-29T16:01:02;14.30;66.90